Aérodrome :
LOGIN :

S'inscrire | Disclaimer

   EN    FR    IT 

 










Légende :    VFR   VFR Marginal   IFR   IFR Intensif   IFR Très Intensif
Visi : 
Plafond : 
>= 8 km
>= 3000ft
5 à 8 km
1000 à 3000 ft
1500m à 5 km
500 à 1000 ft
800 à 1500m
200 à 500 ft
< 800m
< 200 ft
Symboles :   Orages  Brouillard  Fortes neiges  Fortes précipitations  Vent > 20 kt
SIGMETs :   Divers  Orages  Givrage  Turbulence  Onde Orograph.  Cendres Volcan.






- Altitude de l'aérodrome : 499 ft
- Code IATA : TLS


LFBO - Toulouse / Blagnac

DERNIER METAR :
  • 220400Z AUTO 24007KT 210V270 9999 BKN010 OVC015 18/15 Q1015 NOSIG

METARs EXPIRÉS :
  • 220330Z AUTO 22006KT 9999 BKN013 BKN062 OVC086 18/16 Q1015 TEMPO BKN008
  • 220300Z AUTO 26007KT 9999 BKN011 OVC019 18/16 Q1015 TEMPO BKN008
  • 220230Z AUTO 26007KT 9999 OVC011 18/16 Q1016 TEMPO BKN008
  • 220200Z AUTO 26007KT 9999 OVC009 18/16 Q1016 NOSIG

TAF TAF LFBO
Valide du 22 à 00h jusqu'au 23 à 06h UTC


212300Z 2200/2306 28005KT 9999 FEW010 BKN020
PROB40
TEMPO 2200/2207 BKN008
BECMG 2207/2209 SCT015TCU BKN040
BECMG 2214/2216 SCT030
BECMG 2300/2303 4000 BR
PROB40 2302/2306 2000 OVC003
ATIS : +33 5 62 74 66 36



MET'MAP, la Météo Aéronautique d'un coup d'oeil ! - Copyright ORBIFLY Décembre 2007 - Disclaimer

ORBIFLY MET'MAP TEAM :

Programmation & Développement : Alexandra Zaïnal
Sur une idée originale de : Baudouin d'Aumeries
Assistance à la programmation : Marc-Olivier Méhu
Soutien technique & logistique : Manuel Goepfert

Contact : metmap@orbifly.com




SOURCES & CREDITS :

   NOAA